sensor_id;sensor_type;location;lat;lon;timestamp;P1;durP1;ratioP1;P2;durP2;ratioP2
48014;SDS011;33780;51.034;7.120;2024-01-15T00:01:08;24.40;;;11.55;;
48014;SDS011;33780;51.034;7.120;2024-01-15T00:03:34;26.92;;;11.25;;
48014;SDS011;33780;51.034;7.120;2024-01-15T00:05:59;24.08;;;11.27;;
48014;SDS011;33780;51.034;7.120;2024-01-15T00:08:24;22.67;;;11.43;;
48014;SDS011;33780;51.034;7.120;2024-01-15T00:10:49;20.20;;;10.05;;
48014;SDS011;33780;51.034;7.120;2024-01-15T00:13:15;21.58;;;9.88;;
48014;SDS011;33780;51.034;7.120;2024-01-15T00:15:40;22.20;;;10.80;;
48014;SDS011;33780;51.034;7.120;2024-01-15T00:18:05;22.50;;;10.60;;
48014;SDS011;33780;51.034;7.120;2024-01-15T00:20:31;21.40;;;10.68;;
48014;SDS011;33780;51.034;7.120;2024-01-15T00:22:56;23.02;;;11.05;;
48014;SDS011;33780;51.034;7.120;2024-01-15T00:25:21;22.88;;;10.95;;
48014;SDS011;33780;51.034;7.120;2024-01-15T00:27:47;22.38;;;10.63;;
48014;SDS011;33780;51.034;7.120;2024-01-15T00:30:12;26.40;;;11.38;;
48014;SDS011;33780;51.034;7.120;2024-01-15T00:32:38;27.10;;;12.02;;
48014;SDS011;33780;51.034;7.120;2024-01-15T00:35:03;25.30;;;11.35;;
48014;SDS011;33780;51.034;7.120;2024-01-15T00:37:29;22.60;;;10.95;;
48014;SDS011;33780;51.034;7.120;2024-01-15T00:39:54;23.90;;;10.63;;
48014;SDS011;33780;51.034;7.120;2024-01-15T00:42:19;21.80;;;10.65;;
48014;SDS011;33780;51.034;7.120;2024-01-15T00:44:45;23.63;;;10.43;;
48014;SDS011;33780;51.034;7.120;2024-01-15T00:47:10;23.58;;;12.38;;
48014;SDS011;33780;51.034;7.120;2024-01-15T00:49:35;24.50;;;12.02;;
48014;SDS011;33780;51.034;7.120;2024-01-15T00:52:01;25.38;;;12.23;;
48014;SDS011;33780;51.034;7.120;2024-01-15T00:54:26;29.20;;;12.77;;
48014;SDS011;33780;51.034;7.120;2024-01-15T00:56:52;27.65;;;12.68;;
48014;SDS011;33780;51.034;7.120;2024-01-15T00:59:17;27.33;;;12.93;;
48014;SDS011;33780;51.034;7.120;2024-01-15T01:01:43;29.13;;;13.10;;
48014;SDS011;33780;51.034;7.120;2024-01-15T01:04:11;27.55;;;13.13;;
48014;SDS011;33780;51.034;7.120;2024-01-15T01:06:37;30.23;;;14.00;;
48014;SDS011;33780;51.034;7.120;2024-01-15T01:09:03;25.67;;;12.55;;
48014;SDS011;33780;51.034;7.120;2024-01-15T01:11:28;24.67;;;11.60;;
48014;SDS011;33780;51.034;7.120;2024-01-15T01:13:54;25.20;;;11.70;;
48014;SDS011;33780;51.034;7.120;2024-01-15T01:16:19;28.02;;;12.88;;
48014;SDS011;33780;51.034;7.120;2024-01-15T01:18:44;26.00;;;12.48;;
48014;SDS011;33780;51.034;7.120;2024-01-15T01:21:10;29.63;;;13.65;;
48014;SDS011;33780;51.034;7.120;2024-01-15T01:23:35;27.85;;;13.30;;
48014;SDS011;33780;51.034;7.120;2024-01-15T01:26:00;24.55;;;12.15;;
48014;SDS011;33780;51.034;7.120;2024-01-15T01:28:25;27.08;;;12.63;;
48014;SDS011;33780;51.034;7.120;2024-01-15T01:30:51;26.85;;;12.88;;
48014;SDS011;33780;51.034;7.120;2024-01-15T01:33:16;31.75;;;14.57;;
48014;SDS011;33780;51.034;7.120;2024-01-15T01:35:41;27.70;;;13.05;;
48014;SDS011;33780;51.034;7.120;2024-01-15T01:38:06;25.55;;;12.60;;
48014;SDS011;33780;51.034;7.120;2024-01-15T01:40:32;24.58;;;12.80;;
48014;SDS011;33780;51.034;7.120;2024-01-15T01:42:57;25.13;;;12.68;;
48014;SDS011;33780;51.034;7.120;2024-01-15T01:45:22;25.92;;;12.38;;
48014;SDS011;33780;51.034;7.120;2024-01-15T01:47:48;25.48;;;11.48;;
48014;SDS011;33780;51.034;7.120;2024-01-15T01:50:13;27.27;;;13.02;;
48014;SDS011;33780;51.034;7.120;2024-01-15T01:52:39;23.55;;;11.90;;
48014;SDS011;33780;51.034;7.120;2024-01-15T01:55:05;25.38;;;12.48;;
48014;SDS011;33780;51.034;7.120;2024-01-15T01:57:32;23.23;;;11.38;;
48014;SDS011;33780;51.034;7.120;2024-01-15T01:59:59;21.65;;;11.50;;
48014;SDS011;33780;51.034;7.120;2024-01-15T02:02:25;27.30;;;13.40;;
48014;SDS011;33780;51.034;7.120;2024-01-15T02:04:50;24.77;;;12.35;;
48014;SDS011;33780;51.034;7.120;2024-01-15T02:07:16;27.25;;;12.68;;
48014;SDS011;33780;51.034;7.120;2024-01-15T02:09:42;26.05;;;12.90;;
48014;SDS011;33780;51.034;7.120;2024-01-15T02:12:09;28.67;;;12.80;;
48014;SDS011;33780;51.034;7.120;2024-01-15T02:14:35;28.10;;;13.40;;
48014;SDS011;33780;51.034;7.120;2024-01-15T02:17:01;27.50;;;13.60;;
48014;SDS011;33780;51.034;7.120;2024-01-15T02:19:26;26.52;;;12.50;;
48014;SDS011;33780;51.034;7.120;2024-01-15T02:21:51;26.88;;;13.20;;
48014;SDS011;33780;51.034;7.120;2024-01-15T02:24:16;24.90;;;12.52;;
48014;SDS011;33780;51.034;7.120;2024-01-15T02:26:42;24.83;;;11.80;;
48014;SDS011;33780;51.034;7.120;2024-01-15T02:29:08;26.77;;;12.73;;
48014;SDS011;33780;51.034;7.120;2024-01-15T02:31:34;27.85;;;13.63;;
48014;SDS011;33780;51.034;7.120;2024-01-15T02:34:00;24.88;;;12.48;;
48014;SDS011;33780;51.034;7.120;2024-01-15T02:36:25;25.13;;;12.18;;
48014;SDS011;33780;51.034;7.120;2024-01-15T02:38:50;25.00;;;12.02;;
48014;SDS011;33780;51.034;7.120;2024-01-15T02:41:15;25.50;;;12.18;;
48014;SDS011;33780;51.034;7.120;2024-01-15T02:43:41;24.98;;;12.10;;
48014;SDS011;33780;51.034;7.120;2024-01-15T02:46:06;24.83;;;11.95;;
48014;SDS011;33780;51.034;7.120;2024-01-15T02:48:31;24.35;;;11.35;;
48014;SDS011;33780;51.034;7.120;2024-01-15T02:50:58;25.42;;;11.55;;
48014;SDS011;33780;51.034;7.120;2024-01-15T02:53:23;25.73;;;11.90;;
48014;SDS011;33780;51.034;7.120;2024-01-15T02:55:48;23.27;;;10.63;;
48014;SDS011;33780;51.034;7.120;2024-01-15T02:58:14;23.77;;;11.50;;
48014;SDS011;33780;51.034;7.120;2024-01-15T03:00:39;24.50;;;10.27;;
48014;SDS011;33780;51.034;7.120;2024-01-15T03:03:04;24.45;;;10.70;;
48014;SDS011;33780;51.034;7.120;2024-01-15T03:05:30;22.88;;;11.30;;
48014;SDS011;33780;51.034;7.120;2024-01-15T03:07:55;25.00;;;10.52;;
48014;SDS011;33780;51.034;7.120;2024-01-15T03:10:20;22.60;;;10.57;;
48014;SDS011;33780;51.034;7.120;2024-01-15T03:12:45;23.98;;;11.23;;
48014;SDS011;33780;51.034;7.120;2024-01-15T03:15:11;23.67;;;11.10;;
48014;SDS011;33780;51.034;7.120;2024-01-15T03:17:36;22.45;;;11.32;;
48014;SDS011;33780;51.034;7.120;2024-01-15T03:20:01;24.70;;;12.38;;
48014;SDS011;33780;51.034;7.120;2024-01-15T03:22:28;24.92;;;11.55;;
48014;SDS011;33780;51.034;7.120;2024-01-15T03:24:53;23.20;;;11.40;;
48014;SDS011;33780;51.034;7.120;2024-01-15T03:27:18;21.80;;;11.00;;
48014;SDS011;33780;51.034;7.120;2024-01-15T03:29:44;26.20;;;12.43;;
48014;SDS011;33780;51.034;7.120;2024-01-15T03:32:09;21.90;;;10.38;;
48014;SDS011;33780;51.034;7.120;2024-01-15T03:34:34;22.30;;;11.20;;
48014;SDS011;33780;51.034;7.120;2024-01-15T03:36:59;22.42;;;11.60;;
48014;SDS011;33780;51.034;7.120;2024-01-15T03:39:25;22.83;;;10.50;;
48014;SDS011;33780;51.034;7.120;2024-01-15T03:41:50;19.90;;;10.18;;
48014;SDS011;33780;51.034;7.120;2024-01-15T03:44:15;18.15;;;9.80;;
48014;SDS011;33780;51.034;7.120;2024-01-15T03:46:41;18.75;;;9.88;;
48014;SDS011;33780;51.034;7.120;2024-01-15T03:49:06;20.67;;;9.65;;
48014;SDS011;33780;51.034;7.120;2024-01-15T03:51:31;18.15;;;10.05;;
48014;SDS011;33780;51.034;7.120;2024-01-15T03:53:57;18.85;;;9.55;;
48014;SDS011;33780;51.034;7.120;2024-01-15T03:56:22;18.65;;;9.90;;
48014;SDS011;33780;51.034;7.120;2024-01-15T03:58:48;23.02;;;10.98;;
48014;SDS011;33780;51.034;7.120;2024-01-15T04:01:13;19.50;;;9.82;;
48014;SDS011;33780;51.034;7.120;2024-01-15T04:03:38;21.55;;;11.10;;
48014;SDS011;33780;51.034;7.120;2024-01-15T04:06:04;23.15;;;11.50;;
48014;SDS011;33780;51.034;7.120;2024-01-15T04:08:29;21.15;;;10.85;;
48014;SDS011;33780;51.034;7.120;2024-01-15T04:10:55;22.75;;;11.35;;
48014;SDS011;33780;51.034;7.120;2024-01-15T04:13:20;20.80;;;10.68;;
48014;SDS011;33780;51.034;7.120;2024-01-15T04:15:46;21.55;;;11.00;;
48014;SDS011;33780;51.034;7.120;2024-01-15T04:18:11;22.65;;;11.43;;
48014;SDS011;33780;51.034;7.120;2024-01-15T04:20:36;21.05;;;10.55;;
48014;SDS011;33780;51.034;7.120;2024-01-15T04:23:04;21.95;;;10.32;;
48014;SDS011;33780;51.034;7.120;2024-01-15T04:25:29;20.10;;;11.00;;
48014;SDS011;33780;51.034;7.120;2024-01-15T04:27:55;22.10;;;11.30;;
48014;SDS011;33780;51.034;7.120;2024-01-15T04:30:20;20.60;;;11.05;;
48014;SDS011;33780;51.034;7.120;2024-01-15T04:32:45;19.05;;;10.23;;
48014;SDS011;33780;51.034;7.120;2024-01-15T04:35:11;22.38;;;10.30;;
48014;SDS011;33780;51.034;7.120;2024-01-15T04:37:37;21.20;;;10.07;;
48014;SDS011;33780;51.034;7.120;2024-01-15T04:40:03;17.08;;;8.93;;
48014;SDS011;33780;51.034;7.120;2024-01-15T04:42:28;20.08;;;10.65;;
48014;SDS011;33780;51.034;7.120;2024-01-15T04:44:54;20.45;;;9.38;;
48014;SDS011;33780;51.034;7.120;2024-01-15T04:47:19;19.80;;;9.70;;
48014;SDS011;33780;51.034;7.120;2024-01-15T04:49:44;18.95;;;9.48;;
48014;SDS011;33780;51.034;7.120;2024-01-15T04:52:10;20.05;;;8.82;;
48014;SDS011;33780;51.034;7.120;2024-01-15T04:54:35;19.67;;;9.63;;
48014;SDS011;33780;51.034;7.120;2024-01-15T04:57:01;19.33;;;10.10;;
48014;SDS011;33780;51.034;7.120;2024-01-15T04:59:27;18.33;;;9.05;;
48014;SDS011;33780;51.034;7.120;2024-01-15T05:01:53;18.58;;;9.20;;
48014;SDS011;33780;51.034;7.120;2024-01-15T05:04:18;21.20;;;9.88;;
48014;SDS011;33780;51.034;7.120;2024-01-15T05:06:43;18.30;;;8.77;;
48014;SDS011;33780;51.034;7.120;2024-01-15T05:09:08;19.73;;;9.85;;
48014;SDS011;33780;51.034;7.120;2024-01-15T05:11:34;19.33;;;9.38;;
48014;SDS011;33780;51.034;7.120;2024-01-15T05:13:59;21.13;;;10.07;;
48014;SDS011;33780;51.034;7.120;2024-01-15T05:16:24;19.00;;;9.23;;
48014;SDS011;33780;51.034;7.120;2024-01-15T05:18:49;18.58;;;9.35;;
48014;SDS011;33780;51.034;7.120;2024-01-15T05:21:15;19.52;;;9.65;;
48014;SDS011;33780;51.034;7.120;2024-01-15T05:23:40;18.08;;;9.55;;
48014;SDS011;33780;51.034;7.120;2024-01-15T05:26:06;18.90;;;9.40;;
48014;SDS011;33780;51.034;7.120;2024-01-15T05:28:31;16.38;;;8.38;;
48014;SDS011;33780;51.034;7.120;2024-01-15T05:30:56;14.95;;;8.32;;
48014;SDS011;33780;51.034;7.120;2024-01-15T05:33:22;17.90;;;9.35;;
48014;SDS011;33780;51.034;7.120;2024-01-15T05:35:48;16.45;;;9.50;;
48014;SDS011;33780;51.034;7.120;2024-01-15T05:38:15;20.20;;;10.25;;
48014;SDS011;33780;51.034;7.120;2024-01-15T05:40:40;17.35;;;8.80;;
48014;SDS011;33780;51.034;7.120;2024-01-15T05:43:05;19.55;;;9.30;;
48014;SDS011;33780;51.034;7.120;2024-01-15T05:45:31;17.08;;;9.38;;
48014;SDS011;33780;51.034;7.120;2024-01-15T05:47:56;15.10;;;7.82;;
48014;SDS011;33780;51.034;7.120;2024-01-15T05:50:21;14.13;;;7.68;;
48014;SDS011;33780;51.034;7.120;2024-01-15T05:52:47;15.90;;;8.32;;
48014;SDS011;33780;51.034;7.120;2024-01-15T05:55:13;17.02;;;7.95;;
48014;SDS011;33780;51.034;7.120;2024-01-15T05:57:38;15.20;;;8.30;;
48014;SDS011;33780;51.034;7.120;2024-01-15T06:00:04;13.98;;;7.60;;
48014;SDS011;33780;51.034;7.120;2024-01-15T06:02:29;13.07;;;7.40;;
48014;SDS011;33780;51.034;7.120;2024-01-15T06:04:55;17.05;;;7.80;;
48014;SDS011;33780;51.034;7.120;2024-01-15T06:07:20;17.35;;;7.40;;
48014;SDS011;33780;51.034;7.120;2024-01-15T06:09:45;15.95;;;8.15;;
48014;SDS011;33780;51.034;7.120;2024-01-15T06:12:11;13.48;;;7.20;;
48014;SDS011;33780;51.034;7.120;2024-01-15T06:14:36;13.50;;;7.03;;
48014;SDS011;33780;51.034;7.120;2024-01-15T06:17:02;12.30;;;7.30;;
48014;SDS011;33780;51.034;7.120;2024-01-15T06:19:27;16.67;;;7.43;;
48014;SDS011;33780;51.034;7.120;2024-01-15T06:21:53;15.68;;;7.22;;
48014;SDS011;33780;51.034;7.120;2024-01-15T06:24:18;16.60;;;8.02;;
48014;SDS011;33780;51.034;7.120;2024-01-15T06:26:46;13.73;;;7.00;;
48014;SDS011;33780;51.034;7.120;2024-01-15T06:29:11;15.45;;;8.23;;
48014;SDS011;33780;51.034;7.120;2024-01-15T06:31:37;15.25;;;7.65;;
48014;SDS011;33780;51.034;7.120;2024-01-15T06:34:02;15.10;;;7.97;;
48014;SDS011;33780;51.034;7.120;2024-01-15T06:36:27;15.43;;;7.90;;
48014;SDS011;33780;51.034;7.120;2024-01-15T06:38:52;14.70;;;7.47;;
48014;SDS011;33780;51.034;7.120;2024-01-15T06:41:18;13.05;;;7.82;;
48014;SDS011;33780;51.034;7.120;2024-01-15T06:43:43;13.80;;;8.07;;
48014;SDS011;33780;51.034;7.120;2024-01-15T06:46:08;18.45;;;7.80;;
48014;SDS011;33780;51.034;7.120;2024-01-15T06:48:34;14.88;;;7.32;;
48014;SDS011;33780;51.034;7.120;2024-01-15T06:50:59;13.20;;;7.38;;
48014;SDS011;33780;51.034;7.120;2024-01-15T06:53:24;14.25;;;8.00;;
48014;SDS011;33780;51.034;7.120;2024-01-15T06:55:50;15.55;;;8.20;;
48014;SDS011;33780;51.034;7.120;2024-01-15T06:58:16;12.65;;;7.72;;
48014;SDS011;33780;51.034;7.120;2024-01-15T07:00:41;16.67;;;8.00;;
48014;SDS011;33780;51.034;7.120;2024-01-15T07:03:06;15.15;;;7.90;;
48014;SDS011;33780;51.034;7.120;2024-01-15T07:05:32;14.50;;;7.75;;
48014;SDS011;33780;51.034;7.120;2024-01-15T07:07:57;16.25;;;8.35;;
48014;SDS011;33780;51.034;7.120;2024-01-15T07:10:23;13.45;;;7.88;;
48014;SDS011;33780;51.034;7.120;2024-01-15T07:12:48;14.90;;;7.65;;
48014;SDS011;33780;51.034;7.120;2024-01-15T07:15:14;13.90;;;7.57;;
48014;SDS011;33780;51.034;7.120;2024-01-15T07:17:40;15.98;;;7.80;;
48014;SDS011;33780;51.034;7.120;2024-01-15T07:20:06;14.88;;;7.70;;
48014;SDS011;33780;51.034;7.120;2024-01-15T07:22:35;13.15;;;8.02;;
48014;SDS011;33780;51.034;7.120;2024-01-15T07:25:01;15.45;;;7.55;;
48014;SDS011;33780;51.034;7.120;2024-01-15T07:27:27;14.77;;;8.02;;
48014;SDS011;33780;51.034;7.120;2024-01-15T07:29:52;16.05;;;9.15;;
48014;SDS011;33780;51.034;7.120;2024-01-15T07:32:17;17.33;;;9.20;;
48014;SDS011;33780;51.034;7.120;2024-01-15T07:34:43;17.08;;;9.30;;
48014;SDS011;33780;51.034;7.120;2024-01-15T07:37:08;15.85;;;9.40;;
48014;SDS011;33780;51.034;7.120;2024-01-15T07:39:33;18.92;;;9.73;;
48014;SDS011;33780;51.034;7.120;2024-01-15T07:41:59;17.10;;;8.63;;
48014;SDS011;33780;51.034;7.120;2024-01-15T07:44:25;16.10;;;8.07;;
48014;SDS011;33780;51.034;7.120;2024-01-15T07:46:50;12.27;;;8.00;;
48014;SDS011;33780;51.034;7.120;2024-01-15T07:49:16;13.68;;;8.07;;
48014;SDS011;33780;51.034;7.120;2024-01-15T07:51:41;17.00;;;7.93;;
48014;SDS011;33780;51.034;7.120;2024-01-15T07:54:08;14.25;;;7.53;;
48014;SDS011;33780;51.034;7.120;2024-01-15T07:56:34;14.30;;;8.20;;
48014;SDS011;33780;51.034;7.120;2024-01-15T07:58:59;14.85;;;8.15;;
48014;SDS011;33780;51.034;7.120;2024-01-15T08:01:24;16.63;;;8.98;;
48014;SDS011;33780;51.034;7.120;2024-01-15T08:03:50;14.48;;;7.90;;
48014;SDS011;33780;51.034;7.120;2024-01-15T08:06:15;17.63;;;8.25;;
48014;SDS011;33780;51.034;7.120;2024-01-15T08:08:41;15.38;;;8.30;;
48014;SDS011;33780;51.034;7.120;2024-01-15T08:11:06;15.23;;;8.65;;
48014;SDS011;33780;51.034;7.120;2024-01-15T08:13:32;17.55;;;9.05;;
48014;SDS011;33780;51.034;7.120;2024-01-15T08:15:57;13.75;;;8.20;;
48014;SDS011;33780;51.034;7.120;2024-01-15T08:18:23;16.02;;;8.30;;
48014;SDS011;33780;51.034;7.120;2024-01-15T08:20:48;15.48;;;8.20;;
48014;SDS011;33780;51.034;7.120;2024-01-15T08:23:16;15.65;;;8.73;;
48014;SDS011;33780;51.034;7.120;2024-01-15T08:25:41;14.02;;;7.95;;
48014;SDS011;33780;51.034;7.120;2024-01-15T08:28:06;17.20;;;8.57;;
48014;SDS011;33780;51.034;7.120;2024-01-15T08:30:33;15.88;;;8.65;;
48014;SDS011;33780;51.034;7.120;2024-01-15T08:32:58;18.55;;;9.55;;
48014;SDS011;33780;51.034;7.120;2024-01-15T08:35:25;15.32;;;8.88;;
48014;SDS011;33780;51.034;7.120;2024-01-15T08:37:50;19.65;;;9.38;;
48014;SDS011;33780;51.034;7.120;2024-01-15T08:40:16;17.77;;;9.50;;
48014;SDS011;33780;51.034;7.120;2024-01-15T08:42:41;18.00;;;9.95;;
48014;SDS011;33780;51.034;7.120;2024-01-15T08:45:07;18.05;;;10.18;;
48014;SDS011;33780;51.034;7.120;2024-01-15T08:47:33;19.08;;;10.35;;
48014;SDS011;33780;51.034;7.120;2024-01-15T08:49:59;21.33;;;11.35;;
48014;SDS011;33780;51.034;7.120;2024-01-15T08:52:25;17.52;;;10.35;;
48014;SDS011;33780;51.034;7.120;2024-01-15T08:54:50;19.98;;;10.45;;
48014;SDS011;33780;51.034;7.120;2024-01-15T08:57:15;19.73;;;10.73;;
48014;SDS011;33780;51.034;7.120;2024-01-15T08:59:41;16.42;;;9.82;;
48014;SDS011;33780;51.034;7.120;2024-01-15T09:02:06;16.13;;;9.27;;
48014;SDS011;33780;51.034;7.120;2024-01-15T09:04:32;19.67;;;9.95;;
48014;SDS011;33780;51.034;7.120;2024-01-15T09:06:58;18.88;;;9.25;;
48014;SDS011;33780;51.034;7.120;2024-01-15T09:09:23;17.50;;;9.77;;
48014;SDS011;33780;51.034;7.120;2024-01-15T09:11:49;18.98;;;9.48;;
48014;SDS011;33780;51.034;7.120;2024-01-15T09:14:15;17.25;;;9.13;;
48014;SDS011;33780;51.034;7.120;2024-01-15T09:16:40;16.60;;;9.35;;
48014;SDS011;33780;51.034;7.120;2024-01-15T09:19:05;15.77;;;9.38;;
48014;SDS011;33780;51.034;7.120;2024-01-15T09:21:30;18.38;;;9.88;;
48014;SDS011;33780;51.034;7.120;2024-01-15T09:23:56;17.15;;;9.82;;
48014;SDS011;33780;51.034;7.120;2024-01-15T09:26:21;17.30;;;9.88;;
48014;SDS011;33780;51.034;7.120;2024-01-15T09:28:46;17.38;;;9.52;;
48014;SDS011;33780;51.034;7.120;2024-01-15T09:31:12;16.55;;;9.27;;
48014;SDS011;33780;51.034;7.120;2024-01-15T09:33:37;18.30;;;9.57;;
48014;SDS011;33780;51.034;7.120;2024-01-15T09:36:02;17.52;;;9.45;;
48014;SDS011;33780;51.034;7.120;2024-01-15T09:38:29;19.77;;;10.63;;
48014;SDS011;33780;51.034;7.120;2024-01-15T09:40:54;16.52;;;9.55;;
48014;SDS011;33780;51.034;7.120;2024-01-15T09:43:20;17.95;;;9.45;;
48014;SDS011;33780;51.034;7.120;2024-01-15T09:45:47;17.27;;;9.30;;
48014;SDS011;33780;51.034;7.120;2024-01-15T09:48:13;14.02;;;8.13;;
48014;SDS011;33780;51.034;7.120;2024-01-15T09:50:39;16.23;;;7.80;;
48014;SDS011;33780;51.034;7.120;2024-01-15T09:53:05;14.52;;;7.57;;
48014;SDS011;33780;51.034;7.120;2024-01-15T09:55:30;10.93;;;7.15;;
48014;SDS011;33780;51.034;7.120;2024-01-15T09:57:57;11.02;;;7.05;;
48014;SDS011;33780;51.034;7.120;2024-01-15T10:00:26;11.93;;;7.05;;
48014;SDS011;33780;51.034;7.120;2024-01-15T10:02:53;12.00;;;7.30;;
48014;SDS011;33780;51.034;7.120;2024-01-15T10:05:18;10.48;;;7.00;;
48014;SDS011;33780;51.034;7.120;2024-01-15T10:07:43;10.38;;;6.40;;
48014;SDS011;33780;51.034;7.120;2024-01-15T10:10:11;8.77;;;5.57;;
48014;SDS011;33780;51.034;7.120;2024-01-15T10:12:36;11.50;;;6.63;;
48014;SDS011;33780;51.034;7.120;2024-01-15T10:15:04;8.45;;;5.53;;
48014;SDS011;33780;51.034;7.120;2024-01-15T10:17:29;9.38;;;5.60;;
48014;SDS011;33780;51.034;7.120;2024-01-15T10:19:56;9.20;;;5.72;;
48014;SDS011;33780;51.034;7.120;2024-01-15T10:22:21;8.75;;;5.03;;
48014;SDS011;33780;51.034;7.120;2024-01-15T10:24:48;8.63;;;4.95;;
48014;SDS011;33780;51.034;7.120;2024-01-15T10:27:13;8.45;;;5.13;;
48014;SDS011;33780;51.034;7.120;2024-01-15T10:29:40;7.03;;;4.90;;
48014;SDS011;33780;51.034;7.120;2024-01-15T10:32:07;7.47;;;4.65;;
48014;SDS011;33780;51.034;7.120;2024-01-15T10:34:39;7.45;;;4.63;;
48014;SDS011;33780;51.034;7.120;2024-01-15T10:37:10;7.93;;;4.45;;
48014;SDS011;33780;51.034;7.120;2024-01-15T10:39:36;6.50;;;4.28;;
48014;SDS011;33780;51.034;7.120;2024-01-15T10:42:02;6.80;;;4.50;;
48014;SDS011;33780;51.034;7.120;2024-01-15T10:44:28;6.47;;;4.03;;
48014;SDS011;33780;51.034;7.120;2024-01-15T10:46:54;7.95;;;4.50;;
48014;SDS011;33780;51.034;7.120;2024-01-15T10:49:21;7.22;;;4.80;;
48014;SDS011;33780;51.034;7.120;2024-01-15T10:51:49;8.13;;;4.60;;
48014;SDS011;33780;51.034;7.120;2024-01-15T10:54:16;6.68;;;4.40;;
48014;SDS011;33780;51.034;7.120;2024-01-15T10:56:41;6.25;;;4.00;;
48014;SDS011;33780;51.034;7.120;2024-01-15T10:59:07;6.10;;;4.20;;
48014;SDS011;33780;51.034;7.120;2024-01-15T11:01:35;7.10;;;4.10;;
48014;SDS011;33780;51.034;7.120;2024-01-15T11:04:01;6.15;;;3.92;;
48014;SDS011;33780;51.034;7.120;2024-01-15T11:06:27;5.80;;;3.72;;
48014;SDS011;33780;51.034;7.120;2024-01-15T11:08:54;6.22;;;4.50;;
48014;SDS011;33780;51.034;7.120;2024-01-15T11:11:20;5.40;;;3.42;;
48014;SDS011;33780;51.034;7.120;2024-01-15T11:13:47;5.43;;;3.53;;
48014;SDS011;33780;51.034;7.120;2024-01-15T11:16:15;5.70;;;3.80;;
48014;SDS011;33780;51.034;7.120;2024-01-15T11:18:41;5.18;;;3.15;;
48014;SDS011;33780;51.034;7.120;2024-01-15T11:23:44;3.90;;;2.80;;
48014;SDS011;33780;51.034;7.120;2024-01-15T11:28:55;5.43;;;2.50;;
48014;SDS011;33780;51.034;7.120;2024-01-15T11:32:07;4.38;;;2.55;;
48014;SDS011;33780;51.034;7.120;2024-01-15T11:34:07;3.60;;;2.45;;
48014;SDS011;33780;51.034;7.120;2024-01-15T11:42:01;3.03;;;2.20;;
48014;SDS011;33780;51.034;7.120;2024-01-15T11:44:30;2.97;;;1.77;;
48014;SDS011;33780;51.034;7.120;2024-01-15T11:47:00;3.17;;;1.67;;
48014;SDS011;33780;51.034;7.120;2024-01-15T11:52:34;3.70;;;1.88;;
48014;SDS011;33780;51.034;7.120;2024-01-15T11:55:22;3.40;;;1.90;;
48014;SDS011;33780;51.034;7.120;2024-01-15T11:57:52;4.75;;;1.65;;
48014;SDS011;33780;51.034;7.120;2024-01-15T12:00:19;3.05;;;1.65;;
48014;SDS011;33780;51.034;7.120;2024-01-15T12:02:46;3.03;;;1.50;;
48014;SDS011;33780;51.034;7.120;2024-01-15T12:05:12;3.90;;;1.50;;
48014;SDS011;33780;51.034;7.120;2024-01-15T12:07:40;2.97;;;1.70;;
48014;SDS011;33780;51.034;7.120;2024-01-15T12:10:14;3.10;;;1.90;;
48014;SDS011;33780;51.034;7.120;2024-01-15T12:15:09;3.22;;;1.70;;
48014;SDS011;33780;51.034;7.120;2024-01-15T12:17:34;3.83;;;1.88;;
48014;SDS011;33780;51.034;7.120;2024-01-15T12:20:00;3.90;;;1.95;;
48014;SDS011;33780;51.034;7.120;2024-01-15T12:22:25;4.68;;;2.15;;
48014;SDS011;33780;51.034;7.120;2024-01-15T12:24:52;3.58;;;1.90;;
48014;SDS011;33780;51.034;7.120;2024-01-15T12:27:18;3.72;;;2.13;;
48014;SDS011;33780;51.034;7.120;2024-01-15T12:29:43;3.35;;;2.25;;
48014;SDS011;33780;51.034;7.120;2024-01-15T12:32:08;6.45;;;2.75;;
48014;SDS011;33780;51.034;7.120;2024-01-15T12:34:33;6.82;;;3.03;;
48014;SDS011;33780;51.034;7.120;2024-01-15T12:36:59;6.15;;;3.35;;
48014;SDS011;33780;51.034;7.120;2024-01-15T12:39:24;9.15;;;4.10;;
48014;SDS011;33780;51.034;7.120;2024-01-15T12:41:50;5.43;;;3.67;;
48014;SDS011;33780;51.034;7.120;2024-01-15T12:44:16;7.20;;;4.28;;
48014;SDS011;33780;51.034;7.120;2024-01-15T12:46:41;6.35;;;3.85;;
48014;SDS011;33780;51.034;7.120;2024-01-15T12:49:07;7.53;;;4.15;;
48014;SDS011;33780;51.034;7.120;2024-01-15T12:51:34;6.30;;;4.53;;
48014;SDS011;33780;51.034;7.120;2024-01-15T12:53:59;5.85;;;4.28;;
48014;SDS011;33780;51.034;7.120;2024-01-15T12:56:25;6.22;;;3.70;;
48014;SDS011;33780;51.034;7.120;2024-01-15T12:58:50;6.10;;;3.80;;
48014;SDS011;33780;51.034;7.120;2024-01-15T13:01:15;6.47;;;4.22;;
48014;SDS011;33780;51.034;7.120;2024-01-15T13:03:41;6.10;;;3.72;;
48014;SDS011;33780;51.034;7.120;2024-01-15T13:06:06;8.82;;;4.07;;
48014;SDS011;33780;51.034;7.120;2024-01-15T13:08:31;6.43;;;3.90;;
48014;SDS011;33780;51.034;7.120;2024-01-15T13:10:57;5.43;;;3.60;;
48014;SDS011;33780;51.034;7.120;2024-01-15T13:13:22;4.97;;;3.47;;
48014;SDS011;33780;51.034;7.120;2024-01-15T13:15:48;6.20;;;3.00;;
48014;SDS011;33780;51.034;7.120;2024-01-15T13:18:13;7.68;;;3.53;;
48014;SDS011;33780;51.034;7.120;2024-01-15T13:20:38;6.63;;;3.50;;
48014;SDS011;33780;51.034;7.120;2024-01-15T13:23:04;6.35;;;3.22;;
48014;SDS011;33780;51.034;7.120;2024-01-15T13:25:29;6.60;;;3.33;;
48014;SDS011;33780;51.034;7.120;2024-01-15T13:27:54;4.25;;;2.88;;
48014;SDS011;33780;51.034;7.120;2024-01-15T13:30:20;7.50;;;3.10;;
48014;SDS011;33780;51.034;7.120;2024-01-15T13:32:45;6.40;;;2.80;;
48014;SDS011;33780;51.034;7.120;2024-01-15T13:35:12;5.10;;;2.60;;
48014;SDS011;33780;51.034;7.120;2024-01-15T13:37:38;6.10;;;2.67;;
48014;SDS011;33780;51.034;7.120;2024-01-15T13:40:06;5.70;;;2.30;;
48014;SDS011;33780;51.034;7.120;2024-01-15T13:42:34;4.05;;;2.42;;
48014;SDS011;33780;51.034;7.120;2024-01-15T13:45:00;5.60;;;2.53;;
48014;SDS011;33780;51.034;7.120;2024-01-15T13:47:25;4.88;;;2.50;;
48014;SDS011;33780;51.034;7.120;2024-01-15T13:49:50;4.18;;;2.42;;
48014;SDS011;33780;51.034;7.120;2024-01-15T13:52:15;4.57;;;2.30;;
48014;SDS011;33780;51.034;7.120;2024-01-15T13:54:41;4.25;;;2.33;;
48014;SDS011;33780;51.034;7.120;2024-01-15T13:57:07;6.85;;;2.20;;
48014;SDS011;33780;51.034;7.120;2024-01-15T13:59:32;3.60;;;1.92;;
48014;SDS011;33780;51.034;7.120;2024-01-15T14:01:58;4.80;;;2.10;;
48014;SDS011;33780;51.034;7.120;2024-01-15T14:04:23;4.18;;;2.05;;
48014;SDS011;33780;51.034;7.120;2024-01-15T14:06:48;4.32;;;1.92;;
48014;SDS011;33780;51.034;7.120;2024-01-15T14:09:13;5.47;;;2.03;;
48014;SDS011;33780;51.034;7.120;2024-01-15T14:11:39;2.83;;;1.55;;
48014;SDS011;33780;51.034;7.120;2024-01-15T14:14:05;2.65;;;1.67;;
48014;SDS011;33780;51.034;7.120;2024-01-15T14:16:32;3.95;;;1.83;;
48014;SDS011;33780;51.034;7.120;2024-01-15T14:18:58;2.45;;;1.70;;
48014;SDS011;33780;51.034;7.120;2024-01-15T14:21:23;4.72;;;1.88;;
48014;SDS011;33780;51.034;7.120;2024-01-15T14:23:48;3.30;;;1.85;;
48014;SDS011;33780;51.034;7.120;2024-01-15T14:26:13;3.83;;;2.15;;
48014;SDS011;33780;51.034;7.120;2024-01-15T14:28:39;3.20;;;1.88;;
48014;SDS011;33780;51.034;7.120;2024-01-15T14:31:05;5.00;;;2.00;;
48014;SDS011;33780;51.034;7.120;2024-01-15T14:33:30;4.53;;;1.95;;
48014;SDS011;33780;51.034;7.120;2024-01-15T14:35:56;3.45;;;1.95;;
48014;SDS011;33780;51.034;7.120;2024-01-15T14:38:22;2.70;;;1.67;;
48014;SDS011;33780;51.034;7.120;2024-01-15T14:40:48;3.75;;;2.00;;